sensor_id;sensor_type;location;lat;lon;timestamp;pressure;altitude;pressure_sealevel;temperature;humidity
46303;BME280;32029;51.358;5.628;2023-04-22T00:01:57;100567.53;;;10.38;82.52
46303;BME280;32029;51.358;5.628;2023-04-22T00:04:24;100528.41;;;10.14;82.81
46303;BME280;32029;51.358;5.628;2023-04-22T00:06:50;100561.50;;;10.27;82.23
46303;BME280;32029;51.358;5.628;2023-04-22T00:09:17;100567.06;;;10.34;82.23
46303;BME280;32029;51.358;5.628;2023-04-22T00:11:44;100567.44;;;10.31;82.35
46303;BME280;32029;51.358;5.628;2023-04-22T00:14:10;100567.69;;;10.21;82.13
46303;BME280;32029;51.358;5.628;2023-04-22T00:16:37;100571.50;;;10.20;81.83
46303;BME280;32029;51.358;5.628;2023-04-22T00:19:04;100574.03;;;10.22;82.00
46303;BME280;32029;51.358;5.628;2023-04-22T00:21:31;100551.94;;;10.09;82.36
46303;BME280;32029;51.358;5.628;2023-04-22T00:23:58;100575.28;;;10.19;81.89
46303;BME280;32029;51.358;5.628;2023-04-22T00:26:24;100578.41;;;10.16;81.61
46303;BME280;32029;51.358;5.628;2023-04-22T00:28:51;100549.88;;;9.96;81.11
46303;BME280;32029;51.358;5.628;2023-04-22T00:31:18;100549.19;;;9.94;81.26
46303;BME280;32029;51.358;5.628;2023-04-22T00:33:44;100559.41;;;10.00;81.42
46303;BME280;32029;51.358;5.628;2023-04-22T00:36:11;100550.03;;;9.94;82.10
46303;BME280;32029;51.358;5.628;2023-04-22T00:38:38;100535.13;;;9.82;81.45
46303;BME280;32029;51.358;5.628;2023-04-22T00:41:05;100578.41;;;10.01;81.69
46303;BME280;32029;51.358;5.628;2023-04-22T00:43:32;100576.72;;;10.00;82.04
46303;BME280;32029;51.358;5.628;2023-04-22T00:45:59;100549.31;;;9.86;82.38
46303;BME280;32029;51.358;5.628;2023-04-22T00:48:26;100569.72;;;9.98;82.90
46303;BME280;32029;51.358;5.628;2023-04-22T00:50:52;100565.06;;;9.98;82.90
46303;BME280;32029;51.358;5.628;2023-04-22T00:53:19;100570.84;;;10.03;83.15
46303;BME280;32029;51.358;5.628;2023-04-22T00:55:46;100569.59;;;10.06;83.76
46303;BME280;32029;51.358;5.628;2023-04-22T00:58:13;100559.78;;;9.97;84.50
46303;BME280;32029;51.358;5.628;2023-04-22T01:00:40;100579.81;;;10.12;85.09
46303;BME280;32029;51.358;5.628;2023-04-22T01:03:07;100572.91;;;10.16;84.98
46303;BME280;32029;51.358;5.628;2023-04-22T01:05:33;100574.25;;;10.20;85.84
46303;BME280;32029;51.358;5.628;2023-04-22T01:08:01;100555.81;;;10.14;85.53
46303;BME280;32029;51.358;5.628;2023-04-22T01:10:28;100561.50;;;10.27;86.25
46303;BME280;32029;51.358;5.628;2023-04-22T01:12:55;100548.50;;;10.21;86.25
46303;BME280;32029;51.358;5.628;2023-04-22T01:15:21;100559.69;;;10.35;86.34
46303;BME280;32029;51.358;5.628;2023-04-22T01:17:48;100540.19;;;10.29;86.70
46303;BME280;32029;51.358;5.628;2023-04-22T01:20:15;100533.69;;;10.30;86.68
46303;BME280;32029;51.358;5.628;2023-04-22T01:22:44;100516.56;;;10.28;86.56
46303;BME280;32029;51.358;5.628;2023-04-22T01:25:11;100542.75;;;10.46;86.76
46303;BME280;32029;51.358;5.628;2023-04-22T01:27:38;100527.03;;;10.40;86.88
46303;BME280;32029;51.358;5.628;2023-04-22T01:30:06;100551.22;;;10.51;87.02
46303;BME280;32029;51.358;5.628;2023-04-22T01:32:34;100537.13;;;10.54;87.22
46303;BME280;32029;51.358;5.628;2023-04-22T01:35:01;100542.63;;;10.54;87.33
46303;BME280;32029;51.358;5.628;2023-04-22T01:37:28;100540.34;;;10.58;87.08
46303;BME280;32029;51.358;5.628;2023-04-22T01:39:57;100547.53;;;10.59;87.37
46303;BME280;32029;51.358;5.628;2023-04-22T01:42:24;100534.56;;;10.52;87.51
46303;BME280;32029;51.358;5.628;2023-04-22T01:44:50;100532.03;;;10.51;87.35
46303;BME280;32029;51.358;5.628;2023-04-22T01:47:17;100535.75;;;10.65;87.67
46303;BME280;32029;51.358;5.628;2023-04-22T01:49:44;100538.31;;;10.66;87.86
46303;BME280;32029;51.358;5.628;2023-04-22T01:52:11;100531.13;;;10.65;87.52
46303;BME280;32029;51.358;5.628;2023-04-22T01:54:37;100504.00;;;10.55;87.51
46303;BME280;32029;51.358;5.628;2023-04-22T01:57:10;100541.31;;;10.71;87.47
46303;BME280;32029;51.358;5.628;2023-04-22T01:59:39;100529.69;;;10.69;87.51
46303;BME280;32029;51.358;5.628;2023-04-22T02:02:06;100515.06;;;10.62;87.44
46303;BME280;32029;51.358;5.628;2023-04-22T02:04:32;100528.25;;;10.73;87.97
46303;BME280;32029;51.358;5.628;2023-04-22T02:06:59;100525.06;;;10.70;87.88
46303;BME280;32029;51.358;5.628;2023-04-22T02:09:26;100534.97;;;10.71;88.04
46303;BME280;32029;51.358;5.628;2023-04-22T02:11:52;100532.69;;;10.74;87.80
46303;BME280;32029;51.358;5.628;2023-04-22T02:14:19;100548.13;;;10.75;88.08
46303;BME280;32029;51.358;5.628;2023-04-22T02:16:46;100522.91;;;10.65;87.89
46303;BME280;32029;51.358;5.628;2023-04-22T02:19:12;100538.81;;;10.76;88.06
46303;BME280;32029;51.358;5.628;2023-04-22T02:21:39;100512.94;;;10.64;87.90
46303;BME280;32029;51.358;5.628;2023-04-22T02:24:06;100507.00;;;10.61;87.87
46303;BME280;32029;51.358;5.628;2023-04-22T02:26:32;100525.09;;;10.76;87.57
46303;BME280;32029;51.358;5.628;2023-04-22T02:28:59;100529.56;;;10.77;88.01
46303;BME280;32029;51.358;5.628;2023-04-22T02:31:26;100501.97;;;10.64;87.60
46303;BME280;32029;51.358;5.628;2023-04-22T02:33:52;100521.72;;;10.74;87.99
46303;BME280;32029;51.358;5.628;2023-04-22T02:36:19;100521.06;;;10.72;87.92
46303;BME280;32029;51.358;5.628;2023-04-22T02:38:46;100525.97;;;10.77;88.07
46303;BME280;32029;51.358;5.628;2023-04-22T02:41:13;100520.28;;;10.78;88.14
46303;BME280;32029;51.358;5.628;2023-04-22T02:43:39;100519.22;;;10.79;88.01
46303;BME280;32029;51.358;5.628;2023-04-22T02:46:12;100513.75;;;10.79;88.38
46303;BME280;32029;51.358;5.628;2023-04-22T02:48:39;100509.31;;;10.78;88.15
46303;BME280;32029;51.358;5.628;2023-04-22T02:51:05;100497.03;;;10.74;88.08
46303;BME280;32029;51.358;5.628;2023-04-22T02:53:32;100519.50;;;10.85;88.22
46303;BME280;32029;51.358;5.628;2023-04-22T02:55:59;100514.88;;;10.85;88.75
46303;BME280;32029;51.358;5.628;2023-04-22T02:58:25;100516.34;;;10.88;88.95
46303;BME280;32029;51.358;5.628;2023-04-22T03:00:52;100493.50;;;10.81;88.86
46303;BME280;32029;51.358;5.628;2023-04-22T03:03:19;100494.53;;;10.79;88.65
46303;BME280;32029;51.358;5.628;2023-04-22T03:05:46;100508.56;;;10.91;89.14
46303;BME280;32029;51.358;5.628;2023-04-22T03:08:12;100506.88;;;10.90;88.92
46303;BME280;32029;51.358;5.628;2023-04-22T03:10:39;100501.00;;;10.93;89.26
46303;BME280;32029;51.358;5.628;2023-04-22T03:13:06;100499.75;;;10.96;89.14
46303;BME280;32029;51.358;5.628;2023-04-22T03:15:32;100475.59;;;10.85;89.21
46303;BME280;32029;51.358;5.628;2023-04-22T03:17:59;100473.47;;;10.87;89.32
46303;BME280;32029;51.358;5.628;2023-04-22T03:20:26;100486.69;;;10.98;88.91
46303;BME280;32029;51.358;5.628;2023-04-22T03:22:52;100449.97;;;10.77;88.71
46303;BME280;32029;51.358;5.628;2023-04-22T03:25:19;100479.50;;;10.97;88.98
46303;BME280;32029;51.358;5.628;2023-04-22T03:27:46;100476.75;;;10.97;89.44
46303;BME280;32029;51.358;5.628;2023-04-22T03:30:13;100486.28;;;11.01;89.42
46303;BME280;32029;51.358;5.628;2023-04-22T03:32:39;100455.13;;;10.87;89.18
46303;BME280;32029;51.358;5.628;2023-04-22T03:35:06;100467.22;;;10.93;89.57
46303;BME280;32029;51.358;5.628;2023-04-22T03:37:33;100435.88;;;10.81;89.02
46303;BME280;32029;51.358;5.628;2023-04-22T03:40:00;100469.81;;;11.01;89.39
46303;BME280;32029;51.358;5.628;2023-04-22T03:42:26;100454.19;;;11.01;89.02
46303;BME280;32029;51.358;5.628;2023-04-22T03:44:53;100460.53;;;11.02;89.21
46303;BME280;32029;51.358;5.628;2023-04-22T03:47:20;100446.72;;;10.95;89.27
46303;BME280;32029;51.358;5.628;2023-04-22T03:49:47;100455.88;;;11.02;89.34
46303;BME280;32029;51.358;5.628;2023-04-22T03:52:13;100444.84;;;10.96;89.31
46303;BME280;32029;51.358;5.628;2023-04-22T03:54:40;100464.97;;;11.03;89.48
46303;BME280;32029;51.358;5.628;2023-04-22T03:57:07;100457.56;;;11.03;89.20
46303;BME280;32029;51.358;5.628;2023-04-22T03:59:33;100455.69;;;11.04;89.27
46303;BME280;32029;51.358;5.628;2023-04-22T04:02:00;100398.69;;;10.78;89.60
46303;BME280;32029;51.358;5.628;2023-04-22T04:04:27;100419.88;;;10.91;89.39
46303;BME280;32029;51.358;5.628;2023-04-22T04:06:55;100424.13;;;10.93;89.60
46303;BME280;32029;51.358;5.628;2023-04-22T04:09:21;100424.97;;;10.94;89.36
46303;BME280;32029;51.358;5.628;2023-04-22T04:11:48;100440.69;;;11.07;89.57
46303;BME280;32029;51.358;5.628;2023-04-22T04:14:15;100430.56;;;11.07;89.44
46303;BME280;32029;51.358;5.628;2023-04-22T04:16:42;100425.28;;;11.06;89.23
46303;BME280;32029;51.358;5.628;2023-04-22T04:19:09;100426.78;;;11.08;89.46
46303;BME280;32029;51.358;5.628;2023-04-22T04:21:35;100424.03;;;11.08;89.37
46303;BME280;32029;51.358;5.628;2023-04-22T04:24:03;100431.22;;;11.09;89.65
46303;BME280;32029;51.358;5.628;2023-04-22T04:26:29;100407.91;;;10.98;89.42
46303;BME280;32029;51.358;5.628;2023-04-22T04:28:57;100430.56;;;11.07;89.16
46303;BME280;32029;51.358;5.628;2023-04-22T04:31:24;100438.41;;;11.10;89.21
46303;BME280;32029;51.358;5.628;2023-04-22T04:33:51;100425.03;;;11.00;89.04
46303;BME280;32029;51.358;5.628;2023-04-22T04:36:18;100418.44;;;10.95;89.12
46303;BME280;32029;51.358;5.628;2023-04-22T04:38:45;100448.34;;;11.11;89.59
46303;BME280;32029;51.358;5.628;2023-04-22T04:41:13;100437.09;;;11.06;89.40
46303;BME280;32029;51.358;5.628;2023-04-22T04:43:39;100442.84;;;11.11;89.40
46303;BME280;32029;51.358;5.628;2023-04-22T04:46:06;100449.22;;;11.12;89.05
46303;BME280;32029;51.358;5.628;2023-04-22T04:48:33;100424.84;;;11.02;88.98
46303;BME280;32029;51.358;5.628;2023-04-22T04:51:01;100442.84;;;11.11;89.13
46303;BME280;32029;51.358;5.628;2023-04-22T04:53:28;100428.47;;;11.09;89.32
46303;BME280;32029;51.358;5.628;2023-04-22T04:55:54;100419.56;;;11.07;89.32
46303;BME280;32029;51.358;5.628;2023-04-22T04:58:21;100430.41;;;11.15;89.29
46303;BME280;32029;51.358;5.628;2023-04-22T05:00:48;100422.59;;;11.12;89.36
46303;BME280;32029;51.358;5.628;2023-04-22T05:03:14;100422.16;;;11.09;89.99
46303;BME280;32029;51.358;5.628;2023-04-22T05:05:41;100413.91;;;11.09;89.84
46303;BME280;32029;51.358;5.628;2023-04-22T05:08:08;100410.94;;;11.10;90.08
46303;BME280;32029;51.358;5.628;2023-04-22T05:10:34;100416.88;;;11.14;90.03
46303;BME280;32029;51.358;5.628;2023-04-22T05:13:01;100429.84;;;11.26;90.27
46303;BME280;32029;51.358;5.628;2023-04-22T05:15:28;100429.47;;;11.29;90.39
46303;BME280;32029;51.358;5.628;2023-04-22T05:17:54;100421.88;;;11.32;90.35
46303;BME280;32029;51.358;5.628;2023-04-22T05:20:21;100428.84;;;11.34;90.72
46303;BME280;32029;51.358;5.628;2023-04-22T05:22:48;100430.34;;;11.37;90.67
46303;BME280;32029;51.358;5.628;2023-04-22T05:25:15;100435.44;;;11.40;90.71
46303;BME280;32029;51.358;5.628;2023-04-22T05:27:41;100420.81;;;11.33;90.79
46303;BME280;32029;51.358;5.628;2023-04-22T05:30:08;100412.19;;;11.36;90.73
46303;BME280;32029;51.358;5.628;2023-04-22T05:32:35;100429.13;;;11.46;91.10
46303;BME280;32029;51.358;5.628;2023-04-22T05:35:02;100393.50;;;11.24;91.22
46303;BME280;32029;51.358;5.628;2023-04-22T05:37:29;100433.41;;;11.55;91.57
46303;BME280;32029;51.358;5.628;2023-04-22T05:39:55;100430.91;;;11.60;91.67
46303;BME280;32029;51.358;5.628;2023-04-22T05:42:22;100427.53;;;11.65;91.98
46303;BME280;32029;51.358;5.628;2023-04-22T05:44:49;100428.41;;;11.72;91.97
46303;BME280;32029;51.358;5.628;2023-04-22T05:47:16;100433.97;;;11.78;92.53
46303;BME280;32029;51.358;5.628;2023-04-22T05:49:43;100430.41;;;11.85;92.51
46303;BME280;32029;51.358;5.628;2023-04-22T05:52:09;100424.91;;;11.85;92.48
46303;BME280;32029;51.358;5.628;2023-04-22T05:54:36;100435.75;;;11.99;93.05
46303;BME280;32029;51.358;5.628;2023-04-22T05:57:03;100428.56;;;12.05;93.16
46303;BME280;32029;51.358;5.628;2023-04-22T05:59:29;100436.22;;;12.10;93.13
46303;BME280;32029;51.358;5.628;2023-04-22T06:01:56;100427.97;;;12.16;92.99
46303;BME280;32029;51.358;5.628;2023-04-22T06:04:23;100435.41;;;12.22;93.12
46303;BME280;32029;51.358;5.628;2023-04-22T06:06:49;100433.31;;;12.31;93.04
46303;BME280;32029;51.358;5.628;2023-04-22T06:09:20;100436.09;;;12.38;93.07
46303;BME280;32029;51.358;5.628;2023-04-22T06:11:47;100435.88;;;12.46;93.47
46303;BME280;32029;51.358;5.628;2023-04-22T06:14:13;100437.59;;;12.54;93.23
46303;BME280;32029;51.358;5.628;2023-04-22T06:16:40;100443.09;;;12.60;93.60
46303;BME280;32029;51.358;5.628;2023-04-22T06:19:07;100420.66;;;12.57;93.56
46303;BME280;32029;51.358;5.628;2023-04-22T06:21:33;100427.44;;;12.74;93.77
46303;BME280;32029;51.358;5.628;2023-04-22T06:24:02;100429.13;;;12.82;93.62
46303;BME280;32029;51.358;5.628;2023-04-22T06:26:30;100418.13;;;12.82;93.27
46303;BME280;32029;51.358;5.628;2023-04-22T06:28:57;100403.09;;;12.78;93.31
46303;BME280;32029;51.358;5.628;2023-04-22T06:31:24;100418.34;;;13.00;93.35
46303;BME280;32029;51.358;5.628;2023-04-22T06:33:50;100423.19;;;13.05;93.31
46303;BME280;32029;51.358;5.628;2023-04-22T06:36:17;100413.44;;;13.02;93.03
46303;BME280;32029;51.358;5.628;2023-04-22T06:38:44;100424.25;;;13.10;92.96
46303;BME280;32029;51.358;5.628;2023-04-22T06:41:10;100415.56;;;13.13;93.13
46303;BME280;32029;51.358;5.628;2023-04-22T06:43:37;100414.06;;;13.17;93.00
46303;BME280;32029;51.358;5.628;2023-04-22T06:46:04;100413.03;;;13.18;93.24
46303;BME280;32029;51.358;5.628;2023-04-22T06:48:31;100419.78;;;13.29;93.66
46303;BME280;32029;51.358;5.628;2023-04-22T06:50:57;100416.81;;;13.37;94.04
46303;BME280;32029;51.358;5.628;2023-04-22T06:53:24;100417.44;;;13.46;94.13
46303;BME280;32029;51.358;5.628;2023-04-22T06:55:51;100422.72;;;13.54;94.24
46303;BME280;32029;51.358;5.628;2023-04-22T06:58:19;100411.66;;;13.61;93.81
46303;BME280;32029;51.358;5.628;2023-04-22T07:00:46;100405.06;;;13.68;93.56
46303;BME280;32029;51.358;5.628;2023-04-22T07:03:13;100403.97;;;13.76;93.60
46303;BME280;32029;51.358;5.628;2023-04-22T07:05:40;100394.59;;;13.84;93.48
46303;BME280;32029;51.358;5.628;2023-04-22T07:08:06;100395.41;;;13.91;93.55
46303;BME280;32029;51.358;5.628;2023-04-22T07:10:33;100391.34;;;14.00;93.23
46303;BME280;32029;51.358;5.628;2023-04-22T07:13:00;100384.50;;;14.09;93.39
46303;BME280;32029;51.358;5.628;2023-04-22T07:15:26;100394.84;;;14.20;93.08
46303;BME280;32029;51.358;5.628;2023-04-22T07:17:53;100391.38;;;14.32;93.16
46303;BME280;32029;51.358;5.628;2023-04-22T07:20:20;100394.66;;;14.47;93.25
46303;BME280;32029;51.358;5.628;2023-04-22T07:22:46;100395.84;;;14.64;93.08
46303;BME280;32029;51.358;5.628;2023-04-22T07:25:13;100401.44;;;14.83;92.97
46303;BME280;32029;51.358;5.628;2023-04-22T07:27:40;100398.94;;;15.00;92.64
46303;BME280;32029;51.358;5.628;2023-04-22T07:30:07;100393.06;;;15.14;91.80
46303;BME280;32029;51.358;5.628;2023-04-22T07:32:34;100388.47;;;15.27;90.51
46303;BME280;32029;51.358;5.628;2023-04-22T07:35:01;100388.31;;;15.40;89.84
46303;BME280;32029;51.358;5.628;2023-04-22T07:37:28;100387.78;;;15.50;89.54
46303;BME280;32029;51.358;5.628;2023-04-22T07:39:54;100389.78;;;15.61;88.40
46303;BME280;32029;51.358;5.628;2023-04-22T07:42:21;100391.44;;;15.68;88.07
46303;BME280;32029;51.358;5.628;2023-04-22T07:44:48;100390.66;;;15.80;87.55
46303;BME280;32029;51.358;5.628;2023-04-22T07:47:15;100392.41;;;15.92;87.66
46303;BME280;32029;51.358;5.628;2023-04-22T07:49:41;100389.25;;;16.07;87.60
46303;BME280;32029;51.358;5.628;2023-04-22T07:52:09;100389.88;;;16.21;87.23
46303;BME280;32029;51.358;5.628;2023-04-22T07:54:35;100390.53;;;16.35;86.73
46303;BME280;32029;51.358;5.628;2023-04-22T07:57:02;100393.72;;;16.50;86.21
46303;BME280;32029;51.358;5.628;2023-04-22T07:59:29;100388.44;;;16.60;85.25
46303;BME280;32029;51.358;5.628;2023-04-22T08:01:55;100373.03;;;16.64;85.18
46303;BME280;32029;51.358;5.628;2023-04-22T08:04:22;100383.44;;;16.81;82.91
46303;BME280;32029;51.358;5.628;2023-04-22T08:06:49;100382.84;;;16.90;82.92
46303;BME280;32029;51.358;5.628;2023-04-22T08:09:15;100353.47;;;16.89;83.05
46303;BME280;32029;51.358;5.628;2023-04-22T08:11:42;100361.53;;;17.14;82.59
46303;BME280;32029;51.358;5.628;2023-04-22T08:14:09;100357.28;;;17.24;81.36
46303;BME280;32029;51.358;5.628;2023-04-22T08:16:37;100354.75;;;17.34;81.64
46303;BME280;32029;51.358;5.628;2023-04-22T08:19:03;100350.50;;;17.43;80.57
46303;BME280;32029;51.358;5.628;2023-04-22T08:21:30;100355.34;;;17.48;79.22
46303;BME280;32029;51.358;5.628;2023-04-22T08:23:57;100354.00;;;17.50;79.74
46303;BME280;32029;51.358;5.628;2023-04-22T08:26:23;100355.06;;;17.61;79.87
46303;BME280;32029;51.358;5.628;2023-04-22T08:28:52;100355.28;;;17.71;78.84
46303;BME280;32029;51.358;5.628;2023-04-22T08:31:18;100337.69;;;17.77;78.31
46303;BME280;32029;51.358;5.628;2023-04-22T08:33:45;100339.09;;;17.92;78.12
46303;BME280;32029;51.358;5.628;2023-04-22T08:36:12;100331.19;;;18.00;76.01
46303;BME280;32029;51.358;5.628;2023-04-22T08:38:38;100336.59;;;18.07;75.53
46303;BME280;32029;51.358;5.628;2023-04-22T08:41:05;100329.19;;;18.12;75.68
46303;BME280;32029;51.358;5.628;2023-04-22T08:43:32;100320.72;;;18.19;75.38
46303;BME280;32029;51.358;5.628;2023-04-22T08:46:00;100306.34;;;18.22;74.57
46303;BME280;32029;51.358;5.628;2023-04-22T08:48:27;100308.44;;;18.32;74.27
46303;BME280;32029;51.358;5.628;2023-04-22T08:50:54;100309.41;;;18.38;73.60
46303;BME280;32029;51.358;5.628;2023-04-22T08:53:20;100322.53;;;18.42;72.67
46303;BME280;32029;51.358;5.628;2023-04-22T08:55:48;100323.94;;;18.45;72.23
46303;BME280;32029;51.358;5.628;2023-04-22T08:58:14;100334.31;;;18.49;72.58
46303;BME280;32029;51.358;5.628;2023-04-22T09:00:42;100278.41;;;18.29;71.93
46303;BME280;32029;51.358;5.628;2023-04-22T09:03:09;100317.81;;;18.59;70.75
46303;BME280;32029;51.358;5.628;2023-04-22T09:05:39;100325.91;;;18.61;71.17
46303;BME280;32029;51.358;5.628;2023-04-22T09:08:06;100321.19;;;18.61;73.03
46303;BME280;32029;51.358;5.628;2023-04-22T09:10:37;100332.06;;;18.80;72.69
46303;BME280;32029;51.358;5.628;2023-04-22T09:13:05;100318.06;;;18.92;71.25
46303;BME280;32029;51.358;5.628;2023-04-22T09:15:32;100332.06;;;18.97;70.88
46303;BME280;32029;51.358;5.628;2023-04-22T09:18:01;100328.25;;;19.03;70.92
46303;BME280;32029;51.358;5.628;2023-04-22T09:20:29;100305.66;;;18.99;69.76
46303;BME280;32029;51.358;5.628;2023-04-22T09:22:56;100316.50;;;19.18;69.82
46303;BME280;32029;51.358;5.628;2023-04-22T09:25:28;100313.28;;;19.26;69.66
46303;BME280;32029;51.358;5.628;2023-04-22T09:27:56;100312.00;;;19.33;68.22
46303;BME280;32029;51.358;5.628;2023-04-22T09:30:28;100316.78;;;19.38;67.69
46303;BME280;32029;51.358;5.628;2023-04-22T09:32:57;100294.66;;;19.26;68.41
46303;BME280;32029;51.358;5.628;2023-04-22T09:35:32;100316.59;;;19.45;69.25
46303;BME280;32029;51.358;5.628;2023-04-22T09:38:01;100318.53;;;19.44;69.10
46303;BME280;32029;51.358;5.628;2023-04-22T09:40:30;100319.75;;;19.53;67.47
46303;BME280;32029;51.358;5.628;2023-04-22T09:43:00;100317.59;;;19.55;67.30
46303;BME280;32029;51.358;5.628;2023-04-22T09:45:35;100310.91;;;19.56;66.76
46303;BME280;32029;51.358;5.628;2023-04-22T09:50:42;100299.13;;;19.49;67.33
46303;BME280;32029;51.358;5.628;2023-04-22T09:53:12;100317.16;;;19.64;66.92
46303;BME280;32029;51.358;5.628;2023-04-22T09:55:44;100316.97;;;19.70;68.52
46303;BME280;32029;51.358;5.628;2023-04-22T09:58:14;100287.97;;;19.66;65.88
46303;BME280;32029;51.358;5.628;2023-04-22T10:00:53;100310.66;;;19.80;66.78
46303;BME280;32029;51.358;5.628;2023-04-22T10:03:20;100310.16;;;19.83;66.34
46303;BME280;32029;51.358;5.628;2023-04-22T10:05:46;100289.47;;;19.74;65.31
46303;BME280;32029;51.358;5.628;2023-04-22T10:08:15;100310.53;;;19.92;65.04
46303;BME280;32029;51.358;5.628;2023-04-22T10:10:42;100303.59;;;19.94;65.04
46303;BME280;32029;51.358;5.628;2023-04-22T10:13:09;100311.72;;;20.01;65.93
46303;BME280;32029;51.358;5.628;2023-04-22T10:15:51;100309.56;;;20.08;65.21
46303;BME280;32029;51.358;5.628;2023-04-22T10:18:23;100308.78;;;20.13;64.77
46303;BME280;32029;51.358;5.628;2023-04-22T10:20:52;100299.44;;;20.24;64.75
46303;BME280;32029;51.358;5.628;2023-04-22T10:23:21;100313.00;;;20.47;64.25
46303;BME280;32029;51.358;5.628;2023-04-22T10:25:52;100303.13;;;20.57;63.53
46303;BME280;32029;51.358;5.628;2023-04-22T10:28:21;100305.56;;;20.85;62.93
46303;BME280;32029;51.358;5.628;2023-04-22T10:30:48;100302.84;;;20.95;61.73
46303;BME280;32029;51.358;5.628;2023-04-22T10:41:32;100296.03;;;21.81;61.14
46303;BME280;32029;51.358;5.628;2023-04-22T10:44:01;100282.41;;;22.00;60.87
46303;BME280;32029;51.358;5.628;2023-04-22T10:49:06;100291.13;;;22.34;58.61
46303;BME280;32029;51.358;5.628;2023-04-22T10:54:07;100289.47;;;22.33;56.92
46303;BME280;32029;51.358;5.628;2023-04-22T10:59:41;100293.91;;;22.19;56.85
46303;BME280;32029;51.358;5.628;2023-04-22T11:02:10;100297.50;;;22.09;57.53
46303;BME280;32029;51.358;5.628;2023-04-22T11:04:37;100298.59;;;22.03;57.78
46303;BME280;32029;51.358;5.628;2023-04-22T11:09:49;100300.00;;;22.06;58.19
46303;BME280;32029;51.358;5.628;2023-04-22T11:15:05;100293.84;;;22.03;58.20
46303;BME280;32029;51.358;5.628;2023-04-22T11:17:32;100292.75;;;22.05;57.88
46303;BME280;32029;51.358;5.628;2023-04-22T11:20:00;100286.03;;;22.06;58.57
46303;BME280;32029;51.358;5.628;2023-04-22T11:22:27;100287.19;;;22.15;58.41
46303;BME280;32029;51.358;5.628;2023-04-22T11:24:59;100279.94;;;22.19;57.60
46303;BME280;32029;51.358;5.628;2023-04-22T11:27:26;100282.44;;;22.15;57.62
46303;BME280;32029;51.358;5.628;2023-04-22T11:32:42;100292.16;;;22.08;57.15
46303;BME280;32029;51.358;5.628;2023-04-22T11:35:11;100294.97;;;21.97;57.15
46303;BME280;32029;51.358;5.628;2023-04-22T11:37:40;100301.34;;;21.88;56.48
46303;BME280;32029;51.358;5.628;2023-04-22T11:40:08;100308.28;;;21.75;56.35
46303;BME280;32029;51.358;5.628;2023-04-22T11:42:36;100309.38;;;21.64;55.96
46303;BME280;32029;51.358;5.628;2023-04-22T11:45:04;100307.91;;;21.51;56.93
46303;BME280;32029;51.358;5.628;2023-04-22T11:47:32;100304.28;;;21.45;56.98
46303;BME280;32029;51.358;5.628;2023-04-22T11:50:02;100308.16;;;21.39;57.39
46303;BME280;32029;51.358;5.628;2023-04-22T11:55:24;100300.31;;;21.36;57.53
46303;BME280;32029;51.358;5.628;2023-04-22T11:57:57;100310.94;;;21.39;57.94
46303;BME280;32029;51.358;5.628;2023-04-22T12:00:52;100305.38;;;21.44;57.94
46303;BME280;32029;51.358;5.628;2023-04-22T12:03:21;100314.28;;;21.41;57.92
46303;BME280;32029;51.358;5.628;2023-04-22T12:06:00;100315.88;;;21.32;58.53
46303;BME280;32029;51.358;5.628;2023-04-22T12:08:34;100316.41;;;21.29;58.74
46303;BME280;32029;51.358;5.628;2023-04-22T12:11:04;100308.56;;;21.21;59.17
46303;BME280;32029;51.358;5.628;2023-04-22T12:16:10;100313.50;;;21.09;60.08
46303;BME280;32029;51.358;5.628;2023-04-22T12:18:38;100312.91;;;21.01;60.87
46303;BME280;32029;51.358;5.628;2023-04-22T12:21:13;100319.31;;;21.02;61.55
46303;BME280;32029;51.358;5.628;2023-04-22T12:24:00;100313.50;;;21.03;61.84
46303;BME280;32029;51.358;5.628;2023-04-22T12:26:30;100315.69;;;21.01;61.50
46303;BME280;32029;51.358;5.628;2023-04-22T12:28:58;100318.47;;;20.96;62.46
46303;BME280;32029;51.358;5.628;2023-04-22T12:31:26;100318.47;;;20.96;62.62
46303;BME280;32029;51.358;5.628;2023-04-22T12:33:52;100325.78;;;21.02;63.46
46303;BME280;32029;51.358;5.628;2023-04-22T12:36:19;100323.31;;;21.11;63.45
46303;BME280;32029;51.358;5.628;2023-04-22T12:38:50;100323.09;;;21.23;63.54
46303;BME280;32029;51.358;5.628;2023-04-22T12:41:17;100324.25;;;21.27;63.79
46303;BME280;32029;51.358;5.628;2023-04-22T12:43:44;100327.56;;;21.29;62.86
46303;BME280;32029;51.358;5.628;2023-04-22T12:46:11;100331.72;;;21.21;64.27
46303;BME280;32029;51.358;5.628;2023-04-22T12:48:38;100332.56;;;21.22;63.71
46303;BME280;32029;51.358;5.628;2023-04-22T12:51:05;100336.16;;;21.17;63.93
46303;BME280;32029;51.358;5.628;2023-04-22T12:53:32;100336.13;;;21.07;65.07
46303;BME280;32029;51.358;5.628;2023-04-22T12:55:59;100333.53;;;20.95;65.33
46303;BME280;32029;51.358;5.628;2023-04-22T12:58:25;100338.47;;;20.88;65.58
46303;BME280;32029;51.358;5.628;2023-04-22T13:00:52;100346.81;;;20.83;66.06
46303;BME280;32029;51.358;5.628;2023-04-22T13:03:19;100338.53;;;20.61;67.35
46303;BME280;32029;51.358;5.628;2023-04-22T13:05:45;100341.16;;;20.46;68.16
46303;BME280;32029;51.358;5.628;2023-04-22T13:08:12;100350.19;;;20.31;68.82
46303;BME280;32029;51.358;5.628;2023-04-22T13:10:39;100356.44;;;20.16;69.65
46303;BME280;32029;51.358;5.628;2023-04-22T13:13:06;100348.78;;;20.01;70.64
46303;BME280;32029;51.358;5.628;2023-04-22T13:15:33;100353.72;;;19.94;70.78
46303;BME280;32029;51.358;5.628;2023-04-22T13:18:01;100343.56;;;19.83;70.80
46303;BME280;32029;51.358;5.628;2023-04-22T13:20:28;100347.97;;;19.79;70.66
46303;BME280;32029;51.358;5.628;2023-04-22T13:22:55;100353.19;;;19.75;71.24
46303;BME280;32029;51.358;5.628;2023-04-22T13:25:21;100342.25;;;19.69;72.25